Time;durP1;ratioP1;P1;durP2;ratioP2;P2;SDS_P1;SDS_P2;PMS_P1;PMS_P2;Temp;Humidity;BMP_temperature;BMP_pressure;BME280_temperature;BME280_humidity;BME280_pressure;Samples;Min_cycle;Max_cycle;Signal;HPM_P1;HPM_P2
2022/03/12 00:01:58;;;;;;;13.65;11.35;;;4.40;65.20;;;;;;5067801;28;20742;-84
2022/03/12 00:04:26;;;;;;;18.45;11.60;;;4.20;62.60;;;;;;5061221;28;20196;-84
2022/03/12 00:06:54;;;;;;;15.63;11.55;;;4.10;60.00;;;;;;5066136;28;20211;-85
2022/03/12 00:09:22;;;;;;;18.50;10.63;;;;;;;;;;5068412;28;20207;-85
2022/03/12 00:11:51;;;;;;;16.27;11.93;;;4.00;51.10;;;;;;5068443;28;20286;-84
2022/03/12 00:14:23;;;;;;;14.88;10.98;;;4.20;48.60;;;;;;5068155;28;20211;-84
2022/03/12 00:16:50;;;;;;;16.30;10.85;;;4.30;59.50;;;;;;5067469;28;20230;-84
2022/03/12 00:19:20;;;;;;;17.63;11.25;;;4.30;51.00;;;;;;5067952;28;20207;-83
2022/03/12 00:21:47;;;;;;;17.23;11.35;;;4.80;51.70;;;;;;5068515;28;20211;-84
2022/03/12 00:24:16;;;;;;;18.98;12.20;;;4.10;64.70;;;;;;5068160;28;20318;-85
2022/03/12 00:26:43;;;;;;;17.73;11.27;;;4.10;59.70;;;;;;5067500;28;20203;-84
2022/03/12 00:29:14;;;;;;;15.57;11.98;;;4.30;68.60;;;;;;5061269;28;20329;-84
2022/03/12 00:31:41;;;;;;;14.13;12.20;;;4.30;49.40;;;;;;5067176;28;20222;-85
2022/03/12 00:34:08;;;;;;;16.70;12.25;;;4.20;66.80;;;;;;5068039;28;20818;-85
2022/03/12 00:36:35;;;;;;;16.67;12.35;;;4.30;64.90;;;;;;5067211;28;20297;-84
2022/03/12 00:39:02;;;;;;;16.23;11.32;;;3.90;58.70;;;;;;5067887;28;20277;-84
2022/03/12 00:41:30;;;;;;;12.45;10.98;;;4.70;66.90;;;;;;5051881;28;20864;-85
2022/03/12 00:43:57;;;;;;;18.08;11.80;;;;;;;;;;5060078;28;20296;-85
2022/03/12 00:46:24;;;;;;;15.43;10.63;;;4.60;58.70;;;;;;5047110;28;20215;-84
2022/03/12 00:48:51;;;;;;;18.48;12.05;;;4.60;63.90;;;;;;5062185;28;20227;-85
2022/03/12 00:51:18;;;;;;;16.45;11.63;;;;;;;;;;5065356;28;20277;-84
2022/03/12 00:53:45;;;;;;;17.90;11.48;;;;;;;;;;5067716;28;20235;-85
2022/03/12 00:56:12;;;;;;;14.05;11.05;;;;;;;;;;5067410;28;20203;-83
2022/03/12 00:58:45;;;;;;;14.38;10.82;;;4.60;47.50;;;;;;5062770;28;20326;-83
2022/03/12 01:01:13;;;;;;;12.85;11.23;;;4.60;60.20;;;;;;5068497;28;20214;-84
2022/03/12 01:03:40;;;;;;;17.15;11.63;;;4.50;55.00;;;;;;5069034;28;20210;-84
2022/03/12 01:06:09;;;;;;;12.65;11.02;;;4.80;47.50;;;;;;5069228;28;20199;-84
2022/03/12 01:08:37;;;;;;;16.08;10.35;;;4.60;48.80;;;;;;5068631;28;20218;-84
2022/03/12 01:11:07;;;;;;;14.55;11.30;;;4.20;57.40;;;;;;5067395;28;20262;-84
2022/03/12 01:13:35;;;;;;;13.77;11.00;;;4.60;57.50;;;;;;5047559;28;20883;-85
2022/03/12 01:16:06;;;;;;;14.10;10.88;;;4.40;47.30;;;;;;5047249;28;20573;-85
2022/03/12 01:18:38;;;;;;;15.82;11.60;;;5.10;56.10;;;;;;5062435;28;20681;-84
2022/03/12 01:21:09;;;;;;;20.95;10.45;;;5.00;58.00;;;;;;5071508;28;20697;-83
2022/03/12 01:23:36;;;;;;;13.63;10.20;;;;;;;;;;5067499;28;20238;-84
2022/03/12 01:26:04;;;;;;;14.27;11.00;;;4.40;58.10;;;;;;5068921;28;20286;-84
2022/03/12 01:28:31;;;;;;;15.00;10.73;;;4.50;57.00;;;;;;5070700;28;20199;-84
2022/03/12 01:31:01;;;;;;;16.27;11.32;;;4.20;63.30;;;;;;5071027;28;20591;-85
2022/03/12 01:33:30;;;;;;;12.35;9.23;;;4.30;62.40;;;;;;5070792;28;20283;-83
2022/03/12 01:35:58;;;;;;;17.25;10.15;;;4.60;56.90;;;;;;5070788;28;20304;-83
2022/03/12 01:38:31;;;;;;;18.85;9.88;;;4.90;63.70;;;;;;5069636;28;20223;-84
2022/03/12 01:41:03;;;;;;;18.10;11.32;;;4.30;64.60;;;;;;5070482;28;20649;-83
2022/03/12 01:43:32;;;;;;;13.13;10.18;;;4.40;64.20;;;;;;5070856;28;20621;-85
2022/03/12 01:46:01;;;;;;;14.02;10.10;;;4.20;53.80;;;;;;5070615;28;20865;-83
2022/03/12 01:48:30;;;;;;;10.50;9.40;;;4.30;57.20;;;;;;5069381;28;20203;-84
2022/03/12 01:50:57;;;;;;;14.85;10.52;;;4.40;48.30;;;;;;5069922;28;20207;-85
2022/03/12 01:53:27;;;;;;;13.05;10.68;;;4.20;56.70;;;;;;5051029;28;20227;-84
2022/03/12 01:55:55;;;;;;;15.20;9.93;;;4.00;47.30;;;;;;5056676;28;20206;-84
2022/03/12 01:58:24;;;;;;;13.38;10.88;;;4.20;56.40;;;;;;5064911;28;20233;-84
2022/03/12 02:00:53;;;;;;;14.68;9.82;;;4.30;50.90;;;;;;5070002;28;20196;-84
2022/03/12 02:03:23;;;;;;;13.55;9.00;;;4.40;56.50;;;;;;5070635;28;20214;-84
2022/03/12 02:05:52;;;;;;;13.00;10.00;;;4.30;56.50;;;;;;5069797;28;20696;-84
2022/03/12 02:08:20;;;;;;;17.20;9.00;;;4.40;58.50;;;;;;5069292;28;20269;-84
2022/03/12 02:10:49;;;;;;;14.98;11.00;;;4.60;48.20;;;;;;5070198;28;20195;-83
2022/03/12 02:13:18;;;;;;;12.02;9.23;;;4.20;56.20;;;;;;5070507;28;20195;-84
2022/03/12 02:15:45;;;;;;;13.15;9.05;;;3.50;56.10;;;;;;5069757;28;20211;-84
2022/03/12 02:18:14;;;;;;;11.80;9.30;;;4.00;47.80;;;;;;5069629;28;20230;-84
2022/03/12 02:20:42;;;;;;;15.00;9.38;;;4.30;47.00;;;;;;5064216;28;20196;-83
2022/03/12 02:23:11;;;;;;;15.07;10.77;;;4.30;56.90;;;;;;5070151;28;20215;-84
2022/03/12 02:25:40;;;;;;;14.18;10.60;;;4.30;57.00;;;;;;5069883;28;20268;-83
2022/03/12 02:28:16;;;;;;;11.77;10.57;;;4.20;59.80;;;;;;5068384;28;20202;-84
2022/03/12 02:30:45;;;;;;;11.90;8.95;;;4.00;59.10;;;;;;5068656;28;20205;-85
2022/03/12 02:33:14;;;;;;;11.98;9.30;;;3.70;57.10;;;;;;5069830;28;20199;-84
2022/03/12 02:35:43;;;;;;;16.20;10.63;;;4.20;58.50;;;;;;5069680;28;20238;-84
2022/03/12 02:38:12;;;;;;;13.57;9.45;;;3.70;51.00;;;;;;5068828;28;20697;-84
2022/03/12 02:40:44;;;;;;;15.90;10.35;;;3.90;57.80;;;;;;5069564;28;20208;-84
2022/03/12 02:43:12;;;;;;;13.35;9.32;;;4.10;57.50;;;;;;5069400;28;20207;-83
2022/03/12 02:45:39;;;;;;;15.95;9.30;;;4.00;65.40;;;;;;5052501;28;20618;-83
2022/03/12 02:48:08;;;;;;;15.25;9.20;;;;;;;;;;5065871;28;20226;-84
2022/03/12 02:50:35;;;;;;;10.82;8.77;;;4.00;57.70;;;;;;5069100;28;20218;-85
2022/03/12 02:53:03;;;;;;;13.60;9.57;;;;;;;;;;5068818;28;20639;-85
2022/03/12 02:55:34;;;;;;;14.13;9.80;;;4.60;58.70;;;;;;5069237;28;20600;-85
2022/03/12 02:58:09;;;;;;;16.70;8.98;;;3.90;47.80;;;;;;5067387;28;20587;-84
2022/03/12 03:00:37;;;;;;;15.88;9.90;;;3.70;57.80;;;;;;5069368;28;20210;-83
2022/03/12 03:03:05;;;;;;;11.52;9.35;;;3.90;58.20;;;;;;5068639;28;20234;-84
2022/03/12 03:05:44;;;;;;;11.55;9.10;;;4.00;63.50;;;;;;5049620;28;20283;-84
2022/03/12 03:08:13;;;;;;;12.38;8.82;;;2.90;47.20;;;;;;5063182;28;20253;-85
2022/03/12 03:10:42;;;;;;;10.10;7.50;;;3.70;58.60;;;;;;5069730;28;20265;-84
2022/03/12 03:13:33;;;;;;;16.88;9.52;;;3.80;61.10;;;;;;5069167;28;20207;-84
2022/03/12 03:16:03;;;;;;;9.82;8.57;;;3.70;48.10;;;;;;5066328;28;20282;-85
2022/03/12 03:18:31;;;;;;;18.20;9.70;;;3.80;54.50;;;;;;5069065;28;20616;-84
2022/03/12 03:21:00;;;;;;;12.05;8.40;;;3.80;58.40;;;;;;5069552;28;20243;-84
2022/03/12 03:23:29;;;;;;;10.65;8.73;;;3.80;58.70;;;;;;5068709;28;20779;-85
2022/03/12 03:25:56;;;;;;;12.57;8.43;;;3.70;67.10;;;;;;5069397;28;20207;-84
2022/03/12 03:28:25;;;;;;;12.20;8.55;;;3.80;47.80;;;;;;5068971;28;20205;-84
2022/03/12 03:30:52;;;;;;;16.38;10.00;;;3.10;47.40;;;;;;5068152;28;20284;-84
2022/03/12 03:33:20;;;;;;;15.00;9.50;;;3.80;57.90;;;;;;5069587;28;20234;-83
2022/03/12 03:35:48;;;;;;;14.88;10.48;;;3.60;51.90;;;;;;5068936;28;20211;-84
2022/03/12 03:38:16;;;;;;;12.05;9.68;;;3.60;59.40;;;;;;5068528;28;20227;-84
2022/03/12 03:40:44;;;;;;;14.60;8.48;;;3.70;58.20;;;;;;5069037;28;20274;-84
2022/03/12 03:43:13;;;;;;;12.10;8.35;;;3.70;58.10;;;;;;5068687;28;20191;-85
2022/03/12 03:45:43;;;;;;;11.55;7.68;;;3.70;48.10;;;;;;5069298;28;20265;-83
2022/03/12 03:48:13;;;;;;;17.27;9.25;;;3.50;48.00;;;;;;5068494;28;20203;-84
2022/03/12 03:50:40;;;;;;;12.40;8.75;;;4.10;63.80;;;;;;5068860;28;20208;-84
2022/03/12 03:53:07;;;;;;;12.63;7.97;;;3.60;61.00;;;;;;5068071;28;20294;-84
2022/03/12 03:55:34;;;;;;;13.43;8.68;;;3.70;59.90;;;;;;5068493;28;20256;-83
2022/03/12 03:58:03;;;;;;;13.10;9.32;;;3.70;58.20;;;;;;5068248;28;20742;-84
2022/03/12 04:00:31;;;;;;;14.65;8.02;;;3.80;58.30;;;;;;5063422;28;20705;-85
2022/03/12 04:03:02;;;;;;;12.35;8.30;;;4.10;58.60;;;;;;5065926;28;20593;-84
2022/03/12 04:05:32;;;;;;;16.38;9.52;;;3.50;50.10;;;;;;5058932;28;20691;-84
2022/03/12 04:08:00;;;;;;;12.50;9.02;;;3.60;64.60;;;;;;5066867;28;20463;-84
2022/03/12 04:10:27;;;;;;;10.50;9.13;;;3.60;50.20;;;;;;5061405;28;20334;-84
2022/03/12 04:12:55;;;;;;;10.07;7.75;;;4.30;48.30;;;;;;5068437;28;20199;-84
2022/03/12 04:15:22;;;;;;;13.82;8.82;;;3.40;58.10;;;;;;5068779;28;20195;-85
2022/03/12 04:17:51;;;;;;;13.80;8.38;;;3.60;53.00;;;;;;5067758;28;20233;-84
2022/03/12 04:20:20;;;;;;;14.68;8.73;;;3.50;66.40;;;;;;5068309;28;20199;-84
2022/03/12 04:22:49;;;;;;;10.95;7.90;;;3.60;66.00;;;;;;5068118;28;20226;-84
2022/03/12 04:25:16;;;;;;;11.98;8.23;;;3.50;65.40;;;;;;5067780;28;20943;-83
2022/03/12 04:27:44;;;;;;;14.88;8.35;;;3.50;52.10;;;;;;5067979;28;20260;-85
2022/03/12 04:30:13;;;;;;;9.73;7.82;;;3.50;64.20;;;;;;5068394;28;20214;-84
2022/03/12 04:32:42;;;;;;;11.10;7.85;;;3.50;58.20;;;;;;5068791;28;20250;-83
2022/03/12 04:35:10;;;;;;;10.77;7.70;;;3.60;63.80;;;;;;5069025;28;20207;-84
2022/03/12 04:37:38;;;;;;;11.95;8.27;;;3.50;62.10;;;;;;5069499;28;20235;-83
2022/03/12 04:40:08;;;;;;;10.60;8.73;;;3.40;58.80;;;;;;5070777;28;20556;-83
2022/03/12 04:42:38;;;;;;;11.35;8.27;;;3.30;58.20;;;;;;5067493;28;20678;-83
2022/03/12 04:45:06;;;;;;;11.23;7.93;;;3.50;58.60;;;;;;5068011;28;20221;-83
2022/03/12 04:47:33;;;;;;;12.52;8.82;;;3.40;59.50;;;;;;5067306;28;20198;-84
2022/03/12 04:50:00;;;;;;;9.88;7.63;;;3.20;47.90;;;;;;5067841;28;20697;-83
2022/03/12 04:52:27;;;;;;;10.65;8.60;;;;;;;;;;5064367;28;20209;-84
2022/03/12 04:54:55;;;;;;;11.90;7.97;;;3.50;48.00;;;;;;5068140;28;20293;-83
2022/03/12 04:57:22;;;;;;;10.85;8.30;;;3.70;49.80;;;;;;5067374;28;20616;-84
2022/03/12 04:59:49;;;;;;;11.45;8.43;;;3.50;57.90;;;;;;5067460;28;20304;-84
2022/03/12 05:02:16;;;;;;;9.93;8.18;;;3.80;57.60;;;;;;5062903;28;20725;-85
2022/03/12 05:04:43;;;;;;;12.20;8.65;;;3.70;66.00;;;;;;5060207;28;20428;-84
2022/03/12 05:07:14;;;;;;;10.18;7.72;;;3.80;61.80;;;;;;5065113;28;20218;-84
2022/03/12 05:09:41;;;;;;;12.63;8.27;;;3.50;64.80;;;;;;5067389;28;20199;-83
2022/03/12 05:12:10;;;;;;;12.80;9.15;;;3.50;58.10;;;;;;5067805;28;20207;-84
2022/03/12 05:14:38;;;;;;;12.30;9.02;;;3.60;56.70;;;;;;5068281;28;20286;-83
2022/03/12 05:17:08;;;;;;;12.50;8.02;;;3.40;62.10;;;;;;5066528;28;20253;-84
2022/03/12 05:19:35;;;;;;;11.13;7.88;;;3.60;52.60;;;;;;5067813;28;20219;-85
2022/03/12 05:22:03;;;;;;;8.52;7.55;;;3.70;56.30;;;;;;5067392;28;20214;-84
2022/03/12 05:24:30;;;;;;;11.27;8.73;;;3.70;48.60;;;;;;5067819;28;20215;-84
2022/03/12 05:26:58;;;;;;;12.20;8.48;;;3.50;57.30;;;;;;5067021;28;20631;-85
2022/03/12 05:29:26;;;;;;;8.68;7.00;;;3.50;64.00;;;;;;5067390;28;20285;-84
2022/03/12 05:31:53;;;;;;;11.48;7.85;;;3.50;47.20;;;;;;5067755;28;20305;-84
2022/03/12 05:34:22;;;;;;;12.73;8.35;;;4.30;57.90;;;;;;5067407;28;20604;-85
2022/03/12 05:36:49;;;;;;;11.60;8.55;;;3.60;59.30;;;;;;5067133;28;20588;-85
2022/03/12 05:39:16;;;;;;;14.32;8.27;;;3.30;64.10;;;;;;5067378;28;20235;-84
2022/03/12 05:41:44;;;;;;;10.07;8.07;;;;;;;;;;5049876;28;20206;-84
2022/03/12 05:44:14;;;;;;;11.88;8.50;;;3.60;60.90;;;;;;5059986;28;20265;-84
2022/03/12 05:46:42;;;;;;;12.93;9.25;;;3.70;67.30;;;;;;5067402;28;20222;-84
2022/03/12 05:49:10;;;;;;;10.75;7.90;;;3.10;47.00;;;;;;5067287;28;20196;-85
2022/03/12 05:51:37;;;;;;;10.27;7.28;;;3.50;58.60;;;;;;5064986;28;20245;-84
2022/03/12 05:54:05;;;;;;;8.65;7.75;;;3.80;66.90;;;;;;5066815;28;20208;-84
2022/03/12 05:56:32;;;;;;;16.40;9.13;;;3.60;59.10;;;;;;5066681;28;20211;-85
2022/03/12 05:58:59;;;;;;;12.50;9.40;;;;;;;;;;5065810;28;20247;-84
2022/03/12 06:01:26;;;;;;;9.05;7.30;;;3.40;49.60;;;;;;5062135;28;20298;-85
2022/03/12 06:03:55;;;;;;;13.27;8.45;;;3.60;51.40;;;;;;5063128;28;20657;-84
2022/03/12 06:06:24;;;;;;;9.95;8.35;;;;;;;;;;5069286;28;20218;-85
2022/03/12 06:08:51;;;;;;;11.43;8.30;;;3.40;57.80;;;;;;5070828;28;20203;-85
2022/03/12 06:11:17;;;;;;;9.77;7.22;;;3.70;49.70;;;;;;5070194;28;20639;-84
2022/03/12 06:13:59;;;;;;;10.70;8.07;;;;;;;;;;5070744;28;20738;-86
2022/03/12 06:16:26;;;;;;;9.98;8.23;;;3.40;57.40;;;;;;5070109;28;20203;-86
2022/03/12 06:18:55;;;;;;;13.23;7.15;;;;;;;;;;5070496;28;20693;-86
2022/03/12 06:21:22;;;;;;;9.68;7.10;;;4.20;47.30;;;;;;5069902;28;20704;-86
2022/03/12 06:23:49;;;;;;;16.77;8.30;;;3.50;47.10;;;;;;5066846;28;20697;-86
2022/03/12 06:26:21;;;;;;;9.52;7.70;;;3.60;47.10;;;;;;5067413;28;20210;-86
2022/03/12 06:29:02;;;;;;;10.40;7.20;;;;;;;;;;5065060;28;20207;-86
2022/03/12 06:31:31;;;;;;;17.80;9.68;;;;;;;;;;5068547;28;20202;-86
2022/03/12 06:34:02;;;;;;;14.65;8.65;;;;;;;;;;5067857;28;20609;-86
2022/03/12 06:36:29;;;;;;;10.98;7.95;;;;;;;;;;5069068;28;20203;-86
2022/03/12 06:38:57;;;;;;;12.30;8.07;;;;;;;;;;5068907;28;20226;-86
2022/03/12 06:41:24;;;;;;;12.65;9.32;;;;;;;;;;5065393;28;20211;-87
2022/03/12 06:43:52;;;;;;;19.02;9.15;;;;;;;;;;5070174;28;20207;-86
2022/03/12 06:46:20;;;;;;;20.98;10.43;;;;;;;;;;5068530;28;20301;-87
2022/03/12 06:48:48;;;;;;;17.70;8.85;;;;;;;;;;5070084;28;20204;-87
2022/03/12 06:51:16;;;;;;;14.63;8.73;;;;;;;;;;5068180;28;20245;-86
2022/03/12 06:53:44;;;;;;;9.50;7.78;;;;;;;;;;5060224;28;20701;-87
2022/03/12 06:56:12;;;;;;;13.32;8.70;;;;;;;;;;5062320;28;20215;-85
2022/03/12 06:58:39;;;;;;;10.88;7.85;;;;;;;;;;5069401;28;20203;-87
2022/03/12 07:01:06;;;;;;;8.18;7.32;;;;;;;;;;5069326;28;20210;-87
2022/03/12 07:03:33;;;;;;;11.85;8.73;;;;;;;;;;5063081;28;20706;-87
2022/03/12 07:06:00;;;;;;;11.25;8.18;;;3.80;57.20;;;;;;5070122;28;20249;-87
2022/03/12 07:08:29;;;;;;;8.20;7.38;;;;;;;;;;5069231;28;20230;-86
2022/03/12 07:10:56;;;;;;;10.43;8.40;;;;;;;;;;5069415;28;20199;-87
2022/03/12 07:13:24;;;;;;;16.50;9.30;;;;;;;;;;5068374;28;20233;-86
2022/03/12 07:15:51;;;;;;;14.95;8.15;;;;;;;;;;5068335;28;20215;-86
2022/03/12 07:18:18;;;;;;;15.07;9.45;;;4.10;48.70;;;;;;5065648;28;20281;-86
2022/03/12 07:20:45;;;;;;;13.40;8.57;;;4.40;56.70;;;;;;5068050;28;20583;-87
2022/03/12 07:23:12;;;;;;;12.98;8.80;;;;;;;;;;5068747;28;20288;-87
2022/03/12 07:25:41;;;;;;;15.00;8.95;;;4.50;60.60;;;;;;5068384;28;20211;-87
2022/03/12 07:28:10;;;;;;;13.82;9.27;;;4.30;56.40;;;;;;5068268;28;20444;-87
2022/03/12 07:30:36;;;;;;;10.48;8.32;;;4.50;58.80;;;;;;5058700;28;20206;-87
2022/03/12 07:33:03;;;;;;;10.93;9.40;;;4.60;57.40;;;;;;5068435;28;20206;-87
2022/03/12 07:35:30;;;;;;;16.38;8.75;;;4.70;46.20;;;;;;5068891;28;20215;-87
2022/03/12 07:37:58;;;;;;;14.77;9.68;;;4.40;62.20;;;;;;5068366;28;20723;-87
2022/03/12 07:40:25;;;;;;;14.90;10.65;;;4.70;56.00;;;;;;5068704;28;20222;-87
2022/03/12 07:42:54;;;;;;;17.50;9.60;;;4.90;56.60;;;;;;5068276;28;20213;-87
2022/03/12 07:45:21;;;;;;;13.30;8.68;;;4.90;48.30;;;;;;5069383;28;20218;-86
2022/03/12 07:47:49;;;;;;;12.80;9.70;;;5.00;56.30;;;;;;5067679;28;20265;-87
2022/03/12 07:50:16;;;;;;;13.57;9.50;;;5.20;57.20;;;;;;5068891;28;20205;-87
2022/03/12 07:52:43;;;;;;;15.15;10.18;;;5.50;49.80;;;;;;5068478;28;20213;-87
2022/03/12 07:55:11;;;;;;;11.23;9.25;;;5.40;63.20;;;;;;5068880;28;20207;-87
2022/03/12 07:57:40;;;;;;;12.07;9.20;;;4.80;56.30;;;;;;5068130;28;20199;-87
2022/03/12 08:00:11;;;;;;;11.88;9.98;;;5.20;57.30;;;;;;5068326;28;20215;-87
2022/03/12 08:02:38;;;;;;;14.68;9.30;;;5.30;57.20;;;;;;5068218;28;20260;-87
2022/03/12 08:05:06;;;;;;;12.68;9.20;;;5.50;46.70;;;;;;5063494;28;20673;-87
2022/03/12 08:07:33;;;;;;;14.90;10.65;;;6.50;63.60;;;;;;5068568;28;20218;-87
2022/03/12 08:10:01;;;;;;;13.10;10.68;;;5.90;56.80;;;;;;5068395;28;20203;-87
2022/03/12 08:12:31;;;;;;;13.15;9.82;;;6.10;48.30;;;;;;5070210;28;20264;-87
2022/03/12 08:14:58;;;;;;;13.70;9.15;;;6.40;48.50;;;;;;5071394;28;20203;-87
2022/03/12 08:17:26;;;;;;;16.40;10.73;;;6.20;47.10;;;;;;5068789;28;20242;-87
2022/03/12 08:19:54;;;;;;;13.05;9.77;;;6.30;63.40;;;;;;5068183;28;20274;-87
2022/03/12 08:22:21;;;;;;;11.57;9.90;;;6.20;62.30;;;;;;5068061;28;20203;-87
2022/03/12 08:24:48;;;;;;;14.25;9.48;;;6.10;63.40;;;;;;5068099;28;20260;-87
2022/03/12 08:27:15;;;;;;;19.60;10.82;;;6.10;55.50;;;;;;5066428;28;20203;-87
2022/03/12 08:29:43;;;;;;;11.95;9.57;;;6.70;63.00;;;;;;5068450;28;20203;-87
2022/03/12 08:32:11;;;;;;;13.88;8.75;;;6.80;55.40;;;;;;5067694;28;20730;-87
2022/03/12 08:34:41;;;;;;;14.25;9.65;;;6.70;49.60;;;;;;5067781;28;20203;-87
2022/03/12 08:37:08;;;;;;;14.60;10.23;;;6.70;61.40;;;;;;5067602;28;20211;-87
2022/03/12 08:39:35;;;;;;;17.23;8.95;;;7.10;55.80;;;;;;5068130;28;20231;-87
2022/03/12 08:42:02;;;;;;;13.18;10.13;;;;;;;;;;5067965;28;20203;-88
2022/03/12 08:44:29;;;;;;;15.35;10.02;;;6.60;55.60;;;;;;5067216;28;20211;-87
2022/03/12 08:46:56;;;;;;;19.35;12.02;;;;;;;;;;5067394;28;20249;-86
2022/03/12 08:49:24;;;;;;;15.73;9.88;;;7.30;55.70;;;;;;5068079;28;20624;-86
2022/03/12 08:51:52;;;;;;;13.80;11.23;;;;;;;;;;5067536;28;20512;-87
2022/03/12 08:54:19;;;;;;;13.98;12.05;;;7.90;55.70;;;;;;5068296;28;20208;-87
2022/03/12 08:56:46;;;;;;;16.35;11.68;;;7.70;54.90;;;;;;5067666;28;20218;-87
2022/03/12 08:59:13;;;;;;;13.25;10.38;;;7.50;55.30;;;;;;5067506;28;20617;-87
2022/03/12 09:01:41;;;;;;;14.65;11.15;;;;;;;;;;5068030;28;20615;-86
2022/03/12 09:04:08;;;;;;;20.00;10.80;;;7.70;55.40;;;;;;5067866;28;20260;-87
2022/03/12 09:06:35;;;;;;;15.05;10.80;;;;;;;;;;5067472;28;20811;-87
2022/03/12 09:09:04;;;;;;;13.27;11.15;;;8.70;55.50;;;;;;5067976;28;20211;-87
2022/03/12 09:11:32;;;;;;;15.02;11.57;;;;;;;;;;5067833;28;20559;-87
2022/03/12 09:14:00;;;;;;;14.77;11.20;;;;;;;;;;5067379;28;20257;-87
2022/03/12 09:16:26;;;;;;;15.23;11.43;;;8.20;57.20;;;;;;5067925;28;20538;-87
2022/03/12 09:18:53;;;;;;;20.05;11.35;;;8.30;46.50;;;;;;5065533;28;20195;-86
2022/03/12 09:21:20;;;;;;;15.85;11.98;;;8.30;52.50;;;;;;5067887;28;20628;-87
2022/03/12 09:23:47;;;;;;;16.13;11.23;;;;;;;;;;5067787;28;20238;-87
2022/03/12 09:26:17;;;;;;;14.65;12.20;;;8.90;52.80;;;;;;5067539;28;20264;-88
2022/03/12 09:28:44;;;;;;;16.05;11.63;;;9.00;58.80;;;;;;5067685;28;20287;-87
2022/03/12 09:31:12;;;;;;;16.10;12.07;;;8.90;58.10;;;;;;5067126;28;20208;-86
2022/03/12 09:33:39;;;;;;;13.20;10.95;;;9.10;52.20;;;;;;5067812;28;20196;-87
2022/03/12 09:36:09;;;;;;;13.70;11.45;;;9.00;43.70;;;;;;5067408;28;20246;-88
2022/03/12 09:38:36;;;;;;;23.67;13.20;;;;;;;;;;5070076;28;20204;-87
2022/03/12 09:41:03;;;;;;;16.67;12.25;;;9.20;53.20;;;;;;5059154;28;20229;-87
2022/03/12 09:43:32;;;;;;;17.90;12.55;;;9.20;52.40;;;;;;5064036;28;20238;-87
2022/03/12 09:45:59;;;;;;;17.50;12.93;;;9.30;52.10;;;;;;5070945;28;20223;-87
2022/03/12 09:48:26;;;;;;;21.63;12.63;;;9.30;57.40;;;;;;5071113;28;20258;-87
2022/03/12 09:50:53;;;;;;;16.17;11.63;;;9.70;57.30;;;;;;5069849;28;20232;-86
2022/03/12 09:53:20;;;;;;;29.52;13.95;;;9.80;51.10;;;;;;5070097;28;20231;-87
2022/03/12 09:55:47;;;;;;;21.02;12.98;;;9.90;52.30;;;;;;5070874;28;20279;-87
2022/03/12 09:58:14;;;;;;;20.23;13.93;;;9.70;58.10;;;;;;5070559;28;20215;-86
2022/03/12 10:00:43;;;;;;;22.30;13.13;;;9.60;58.70;;;;;;5070708;28;20344;-87
2022/03/12 10:03:11;;;;;;;15.65;11.98;;;;;;;;;;5071106;28;21109;-87
2022/03/12 10:05:38;;;;;;;20.80;13.30;;;9.90;52.40;;;;;;5070525;28;20750;-87
2022/03/12 10:08:05;;;;;;;23.07;14.60;;;10.40;57.20;;;;;;5070402;28;21039;-87
2022/03/12 10:10:34;;;;;;;22.70;13.47;;;10.30;52.30;;;;;;5070743;28;20727;-86
2022/03/12 10:13:01;;;;;;;19.13;13.00;;;;;;;;;;5070231;28;21178;-87
2022/03/12 10:15:28;;;;;;;18.87;12.87;;;10.20;56.80;;;;;;5070571;28;20614;-87
2022/03/12 10:17:56;;;;;;;20.57;13.93;;;10.50;53.40;;;;;;5069821;28;20628;-87
2022/03/12 10:20:23;;;;;;;19.50;13.90;;;10.20;56.50;;;;;;5070212;28;21212;-87
2022/03/12 10:22:51;;;;;;;27.33;14.13;;;10.70;55.10;;;;;;5070561;28;20631;-87
2022/03/12 10:25:18;;;;;;;18.83;13.73;;;10.30;51.00;;;;;;5070579;28;20726;-86
2022/03/12 10:27:45;;;;;;;18.20;12.97;;;;;;;;;;5069531;28;20655;-87
2022/03/12 10:30:13;;;;;;;16.30;13.30;;;10.60;55.90;;;;;;5070338;28;20701;-87
2022/03/12 10:32:45;;;;;;;16.60;12.53;;;10.90;55.30;;;;;;5070113;28;21014;-87
2022/03/12 10:35:15;;;;;;;15.77;12.67;;;10.60;54.20;;;;;;5069995;28;20654;-87
2022/03/12 10:37:42;;;;;;;19.90;12.33;;;;;;;;;;5069690;28;20771;-86
2022/03/12 10:40:11;;;;;;;17.50;13.10;;;10.70;57.40;;;;;;5065480;28;20735;-87
2022/03/12 10:42:46;;;;;;;16.83;12.00;;;11.20;57.00;;;;;;5060508;28;21209;-86
2022/03/12 10:45:16;;;;;;;20.17;13.13;;;11.10;43.10;;;;;;5069093;28;20620;-87
2022/03/12 10:47:45;;;;;;;18.90;12.20;;;11.00;43.60;;;;;;5069674;28;21017;-87
2022/03/12 10:50:18;;;;;;;16.77;11.80;;;10.90;51.80;;;;;;5069597;28;20629;-86
2022/03/12 10:52:49;;;;;;;17.80;13.17;;;11.20;43.00;;;;;;5066437;28;21070;-87
2022/03/12 10:55:19;;;;;;;20.43;13.27;;;11.20;42.80;;;;;;5069715;28;20625;-87
2022/03/12 10:57:57;;;;;;;18.30;12.57;;;11.30;43.00;;;;;;5069753;28;20725;-87
2022/03/12 11:00:25;;;;;;;17.93;13.43;;;;;;;;;;5068652;28;20665;-87
2022/03/12 11:02:57;;;;;;;18.63;12.90;;;11.40;56.20;;;;;;5069063;28;20621;-86
2022/03/12 11:05:32;;;;;;;21.23;13.83;;;11.70;51.40;;;;;;5069137;28;20621;-86
2022/03/12 11:08:15;;;;;;;21.77;14.57;;;11.50;56.60;;;;;;5066149;28;20745;-86
2022/03/12 11:10:52;;;;;;;17.87;13.80;;;11.70;44.20;;;;;;5061230;28;20318;-86
2022/03/12 11:13:41;;;;;;;17.58;13.80;;;11.90;51.70;;;;;;5067871;28;20750;-85
2022/03/12 11:16:16;;;;;;;16.50;12.27;;;11.90;44.50;;;;;;5057365;28;20837;-86
2022/03/12 11:18:57;;;;;;;20.17;13.43;;;11.90;52.30;;;;;;5062341;28;20854;-86
2022/03/12 11:21:33;;;;;;;16.97;12.10;;;12.10;44.40;;;;;;5066037;28;20424;-85
2022/03/12 11:24:03;;;;;;;19.00;12.40;;;12.00;58.10;;;;;;5060882;28;20660;-86
2022/03/12 11:26:30;;;;;;;19.67;12.93;;;11.80;57.00;;;;;;5069675;28;20774;-86
2022/03/12 11:28:58;;;;;;;15.87;12.40;;;11.90;51.90;;;;;;5069510;28;21066;-85
2022/03/12 11:31:48;;;;;;;16.30;10.93;;;12.20;57.90;;;;;;5068111;28;20631;-86
2022/03/12 11:34:20;;;;;;;18.93;11.57;;;12.20;59.30;;;;;;5067116;28;20698;-85
2022/03/12 11:37:02;;;;;;;15.87;12.27;;;12.10;53.20;;;;;;5067507;28;20637;-86
2022/03/12 11:39:32;;;;;;;13.87;11.23;;;12.40;54.60;;;;;;5067664;28;20724;-86
2022/03/12 11:42:06;;;;;;;13.07;11.67;;;12.40;58.80;;;;;;5054221;28;21006;-86
2022/03/12 11:44:35;;;;;;;13.73;11.17;;;12.60;60.50;;;;;;5067673;28;20633;-85
2022/03/12 11:47:02;;;;;;;14.40;12.07;;;12.40;59.50;;;;;;5063279;28;20845;-86
2022/03/12 11:49:30;;;;;;;11.50;9.60;;;12.50;46.70;;;;;;5067103;28;20203;-86
2022/03/12 11:51:59;;;;;;;13.30;10.30;;;12.60;46.40;;;;;;5068286;28;21227;-86
2022/03/12 11:54:26;;;;;;;14.97;11.90;;;12.50;46.70;;;;;;5068881;28;20621;-86
2022/03/12 11:56:53;;;;;;;14.40;10.67;;;12.30;55.80;;;;;;5067388;28;20637;-85
2022/03/12 11:59:21;;;;;;;14.27;10.97;;;;;;;;;;5067831;28;21247;-86
2022/03/12 12:02:05;;;;;;;22.83;11.07;;;13.20;61.60;;;;;;5068056;28;20653;-86
2022/03/12 12:04:33;;;;;;;15.50;9.70;;;12.60;47.50;;;;;;5066901;28;20621;-86
2022/03/12 12:07:02;;;;;;;16.80;9.43;;;12.70;47.40;;;;;;5066935;28;20765;-86
2022/03/12 12:09:30;;;;;;;13.33;9.60;;;12.50;56.00;;;;;;5067266;28;21002;-86
2022/03/12 12:11:58;;;;;;;12.07;9.00;;;12.70;61.10;;;;;;5066495;28;20643;-86
2022/03/12 12:14:25;;;;;;;13.33;9.80;;;12.90;62.10;;;;;;5067003;28;20648;-86
2022/03/12 12:16:59;;;;;;;11.70;9.30;;;13.10;47.70;;;;;;5067082;28;20653;-84
2022/03/12 12:19:28;;;;;;;12.73;8.43;;;;;;;;;;5068360;28;20714;-86
2022/03/12 12:21:55;;;;;;;17.30;8.90;;;13.20;60.80;;;;;;5067913;28;20653;-86
2022/03/12 12:24:28;;;;;;;11.50;7.97;;;13.10;61.70;;;;;;5067851;28;20665;-86
2022/03/12 12:27:00;;;;;;;6.07;4.80;;;13.10;63.60;;;;;;5067875;28;20721;-85
2022/03/12 12:29:47;;;;;;;7.30;5.63;;;13.20;49.50;;;;;;5068011;28;20659;-85
2022/03/12 12:32:15;;;;;;;11.07;8.20;;;13.10;64.50;;;;;;5067651;28;20649;-86
2022/03/12 12:35:13;;;;;;;12.30;9.13;;;13.20;49.40;;;;;;5068053;28;20710;-86
2022/03/12 12:38:04;;;;;;;10.73;7.63;;;13.20;48.00;;;;;;5055331;28;21261;-86
2022/03/12 12:40:36;;;;;;;10.97;9.60;;;13.30;48.80;;;;;;5047265;28;20665;-86
2022/03/12 12:43:09;;;;;;;10.30;8.37;;;13.30;60.50;;;;;;5063339;28;20635;-86
2022/03/12 12:45:44;;;;;;;12.67;8.43;;;13.30;47.30;;;;;;5048411;28;20675;-86
2022/03/12 12:48:14;;;;;;;12.80;9.53;;;13.40;47.60;;;;;;5066220;28;20763;-86
2022/03/12 12:51:02;;;;;;;12.17;8.70;;;13.70;59.70;;;;;;5067891;28;20629;-86
2022/03/12 12:53:31;;;;;;;10.47;8.67;;;13.40;47.50;;;;;;5062422;28;20703;-86
2022/03/12 12:56:21;;;;;;;12.20;7.93;;;13.30;47.80;;;;;;5068347;28;20674;-86
2022/03/12 12:59:08;;;;;;;10.33;8.60;;;13.60;61.80;;;;;;5068143;28;20614;-86
2022/03/12 13:01:48;;;;;;;8.90;7.23;;;13.50;47.90;;;;;;5067290;28;20728;-85
2022/03/12 13:04:15;;;;;;;13.93;9.07;;;13.80;48.50;;;;;;5067718;28;20613;-86
2022/03/12 13:06:48;;;;;;;11.10;9.67;;;13.60;53.90;;;;;;5067246;28;20644;-86